createdAt,value
2023-05-02T00:01:22.752Z,0.55
2023-05-02T00:03:53.189Z,0.70
2023-05-02T00:06:23.337Z,0.40
2023-05-02T00:08:53.585Z,0.47
2023-05-02T00:11:25.462Z,0.47
2023-05-02T00:13:55.601Z,0.30
2023-05-02T00:16:28.401Z,0.30
2023-05-02T00:18:58.827Z,0.32
2023-05-02T00:21:29.535Z,0.82
2023-05-02T00:24:00.513Z,0.40
2023-05-02T00:26:31.244Z,0.50
2023-05-02T00:29:01.503Z,0.40
2023-05-02T00:31:35.977Z,0.82
2023-05-02T00:34:06.732Z,0.60
2023-05-02T00:36:37.096Z,0.57
2023-05-02T00:39:08.174Z,0.40
2023-05-02T00:41:38.710Z,0.40
2023-05-02T00:44:09.210Z,0.40
2023-05-02T00:46:42.243Z,0.82
2023-05-02T00:49:12.737Z,0.50
2023-05-02T00:51:43.719Z,0.68
2023-05-02T00:54:14.720Z,0.50
2023-05-02T00:56:45.144Z,0.32
2023-05-02T00:59:16.749Z,1.30
2023-05-02T01:02:01.404Z,0.65
2023-05-02T01:04:43.139Z,0.80
2023-05-02T01:07:25.541Z,0.65
2023-05-02T01:10:12.735Z,0.60
2023-05-02T01:12:46.393Z,0.52
2023-05-02T01:15:22.076Z,0.63
2023-05-02T01:17:57.699Z,0.55
2023-05-02T01:20:32.237Z,0.45
2023-05-02T01:23:10.168Z,0.60
2023-05-02T01:25:59.601Z,0.88
2023-05-02T01:28:40.706Z,0.85
2023-05-02T01:31:15.377Z,0.70
2023-05-02T01:33:47.832Z,0.70
2023-05-02T01:36:22.824Z,1.30
2023-05-02T01:38:54.600Z,1.27
2023-05-02T01:41:27.994Z,1.40
2023-05-02T01:44:01.039Z,1.05
2023-05-02T01:46:36.927Z,1.92
2023-05-02T01:49:11.031Z,1.20
2023-05-02T01:51:48.991Z,1.38
2023-05-02T01:54:20.773Z,1.27
2023-05-02T01:56:51.406Z,1.58
2023-05-02T01:59:24.009Z,3.20
2023-05-02T02:01:57.999Z,2.60
2023-05-02T02:04:29.498Z,1.90
2023-05-02T02:07:04.377Z,2.35
2023-05-02T02:09:34.806Z,4.07
2023-05-02T02:12:10.041Z,2.67
2023-05-02T02:14:42.403Z,3.05
2023-05-02T02:17:28.661Z,1.63
2023-05-02T02:20:00.706Z,1.70
2023-05-02T02:22:32.169Z,3.40
2023-05-02T02:25:02.637Z,2.15
2023-05-02T02:27:32.922Z,1.48
2023-05-02T02:30:04.589Z,1.77
2023-05-02T02:32:37.358Z,2.00
2023-05-02T02:35:08.871Z,4.15
2023-05-02T02:37:44.555Z,2.55
2023-05-02T02:40:23.857Z,2.13
2023-05-02T02:43:05.580Z,4.10
2023-05-02T02:45:42.007Z,3.70
2023-05-02T02:48:28.067Z,3.60
2023-05-02T02:51:06.484Z,2.30
2023-05-02T02:53:41.212Z,2.83
2023-05-02T02:56:19.126Z,4.40
2023-05-02T02:58:57.622Z,3.38
2023-05-02T03:01:32.092Z,4.78
2023-05-02T03:04:09.168Z,7.97
2023-05-02T03:06:42.600Z,5.55
2023-05-02T03:09:19.416Z,4.85
2023-05-02T03:11:52.027Z,7.28
2023-05-02T03:14:22.251Z,5.10
2023-05-02T03:16:53.207Z,3.65
2023-05-02T03:19:29.912Z,2.97
2023-05-02T03:22:02.289Z,4.35
2023-05-02T03:24:34.088Z,2.20
2023-05-02T03:27:15.920Z,2.88
2023-05-02T03:29:48.545Z,2.40
2023-05-02T03:32:18.994Z,2.80
2023-05-02T03:34:52.603Z,3.85
2023-05-02T03:37:22.609Z,2.83
2023-05-02T03:39:52.857Z,3.15
2023-05-02T03:42:25.677Z,1.75
2023-05-02T03:44:56.583Z,2.53
2023-05-02T03:47:28.483Z,2.50
2023-05-02T03:50:03.625Z,2.65
2023-05-02T03:52:37.710Z,3.88
2023-05-02T03:55:09.231Z,3.53
2023-05-02T03:57:40.868Z,3.90
2023-05-02T04:00:14.584Z,3.03
2023-05-02T04:02:52.235Z,1.80
2023-05-02T04:05:28.877Z,3.83
2023-05-02T04:07:59.918Z,2.60
2023-05-02T04:10:30.235Z,4.43
2023-05-02T04:13:04.030Z,3.90
2023-05-02T04:15:36.224Z,2.90
2023-05-02T04:18:07.408Z,3.42
2023-05-02T04:20:41.633Z,2.78
2023-05-02T04:23:11.897Z,5.13
2023-05-02T04:25:42.042Z,4.45
2023-05-02T04:28:12.951Z,3.72
2023-05-02T04:30:43.356Z,3.00
2023-05-02T04:33:14.887Z,2.65
2023-05-02T04:35:47.875Z,2.97
2023-05-02T04:38:19.969Z,2.17
2023-05-02T04:40:54.234Z,3.58
2023-05-02T04:43:31.450Z,3.33
2023-05-02T04:46:04.865Z,4.23
2023-05-02T04:51:17.061Z,5.22
2023-05-02T04:53:50.707Z,5.07
2023-05-02T04:56:22.002Z,4.03
2023-05-02T04:58:52.796Z,4.65
2023-05-02T05:01:24.322Z,6.07
2023-05-02T05:03:56.984Z,4.65
2023-05-02T05:06:30.037Z,3.63
2023-05-02T05:09:00.653Z,3.27
2023-05-02T05:11:30.907Z,4.47
2023-05-02T05:14:01.143Z,3.00
2023-05-02T05:16:32.426Z,3.85
2023-05-02T05:19:03.143Z,2.50
2023-05-02T05:21:38.290Z,2.50
2023-05-02T05:24:09.619Z,1.98
2023-05-02T05:26:40.842Z,1.70
2023-05-02T05:29:14.904Z,1.48
2023-05-02T05:31:46.055Z,1.50
2023-05-02T05:34:19.146Z,0.98
2023-05-02T05:36:53.367Z,1.48
2023-05-02T05:39:25.775Z,1.20
2023-05-02T05:41:59.259Z,1.65
2023-05-02T05:44:30.190Z,0.93
2023-05-02T05:47:02.803Z,1.40
2023-05-02T05:49:38.455Z,0.90
2023-05-02T05:52:15.978Z,1.08
2023-05-02T05:54:46.387Z,0.98
2023-05-02T05:57:17.055Z,1.40
2023-05-02T05:59:47.379Z,1.27
2023-05-02T06:02:19.949Z,1.13
2023-05-02T06:04:50.737Z,1.23
2023-05-02T06:07:26.556Z,1.00
2023-05-02T06:09:56.676Z,1.40
2023-05-02T06:12:27.203Z,1.10
2023-05-02T06:14:57.414Z,1.58
2023-05-02T06:17:27.920Z,1.40
2023-05-02T06:19:58.522Z,0.95
2023-05-02T06:22:31.479Z,1.02
2023-05-02T06:25:01.985Z,1.77
2023-05-02T06:27:33.675Z,0.98
2023-05-02T06:30:04.961Z,0.80
2023-05-02T06:32:35.538Z,2.03
2023-05-02T06:35:05.758Z,1.80
2023-05-02T06:37:39.275Z,0.93
2023-05-02T06:40:11.209Z,1.27
2023-05-02T06:42:41.454Z,0.90
2023-05-02T06:45:12.414Z,1.40
2023-05-02T06:47:42.489Z,2.13
2023-05-02T06:50:14.433Z,1.60
2023-05-02T06:52:47.184Z,1.60
2023-05-02T06:55:17.398Z,2.08
2023-05-02T06:57:47.443Z,1.60
2023-05-02T07:00:21.874Z,1.00
2023-05-02T07:05:22.533Z,1.90
2023-05-02T07:07:57.713Z,1.20
2023-05-02T07:10:27.902Z,1.02
2023-05-02T07:13:00.889Z,2.40
2023-05-02T07:15:30.955Z,1.73
2023-05-02T07:18:01.267Z,1.20
2023-05-02T07:20:31.681Z,1.90
2023-05-02T07:23:05.668Z,1.20
2023-05-02T07:25:36.867Z,1.27
2023-05-02T07:28:07.316Z,1.30
2023-05-02T07:30:37.443Z,1.63
2023-05-02T07:33:07.786Z,1.63
2023-05-02T07:35:37.868Z,1.20
2023-05-02T07:38:10.559Z,2.00
2023-05-02T07:40:40.972Z,1.40
2023-05-02T07:43:11.458Z,1.15
2023-05-02T07:45:41.620Z,2.50
2023-05-02T07:48:11.882Z,2.42
2023-05-02T07:50:42.145Z,1.48
2023-05-02T07:53:15.153Z,2.15
2023-05-02T07:55:45.250Z,2.40
2023-05-02T07:58:15.431Z,2.15
2023-05-02T08:00:45.554Z,2.03
2023-05-02T08:03:15.717Z,2.03
2023-05-02T08:05:45.833Z,1.27
2023-05-02T08:08:18.560Z,1.70
2023-05-02T08:10:50.613Z,1.50
2023-05-02T08:13:21.205Z,1.00
2023-05-02T08:15:52.154Z,1.40
2023-05-02T08:18:24.041Z,1.50
2023-05-02T08:20:54.643Z,1.52
2023-05-02T08:23:27.391Z,1.20
2023-05-02T08:25:57.528Z,2.15
2023-05-02T08:28:27.913Z,1.73
2023-05-02T08:30:58.075Z,0.85
2023-05-02T08:33:28.420Z,0.70
2023-05-02T08:35:58.328Z,1.40
2023-05-02T08:38:31.121Z,1.45
2023-05-02T08:41:01.210Z,1.30
2023-05-02T08:43:32.666Z,1.27
2023-05-02T08:46:05.069Z,1.80
2023-05-02T08:48:36.250Z,1.08
2023-05-02T08:51:07.192Z,1.13
2023-05-02T08:53:40.997Z,1.48
2023-05-02T08:56:12.165Z,1.67
2023-05-02T08:58:43.284Z,1.60
2023-05-02T09:01:16.242Z,1.70
2023-05-02T09:03:47.283Z,1.23
2023-05-02T09:06:19.360Z,0.90
2023-05-02T09:08:53.680Z,1.15
2023-05-02T09:11:24.377Z,2.05
2023-05-02T09:13:56.215Z,1.92
2023-05-02T09:16:27.632Z,1.67
2023-05-02T09:18:59.034Z,1.63
2023-05-02T09:21:37.897Z,1.85
2023-05-02T09:24:21.260Z,2.45
2023-05-02T09:27:03.124Z,1.80
2023-05-02T09:29:36.506Z,1.10
2023-05-02T09:32:07.226Z,1.65
2023-05-02T09:34:37.830Z,1.00
2023-05-02T09:37:08.538Z,1.17
2023-05-02T09:39:41.101Z,1.42
2023-05-02T09:42:11.106Z,1.10
2023-05-02T09:44:41.394Z,1.42
2023-05-02T09:47:11.612Z,1.40
2023-05-02T09:49:46.686Z,1.70
2023-05-02T09:52:18.546Z,1.20
2023-05-02T09:54:52.835Z,1.02
2023-05-02T09:57:23.534Z,1.75
2023-05-02T10:00:03.657Z,1.45
2023-05-02T10:02:43.644Z,0.93
2023-05-02T10:05:14.763Z,1.20
2023-05-02T10:07:44.996Z,1.30
2023-05-02T10:10:20.489Z,1.45
2023-05-02T10:12:53.658Z,1.40
2023-05-02T10:15:28.227Z,0.90
2023-05-02T10:18:01.321Z,0.70
2023-05-02T10:20:38.868Z,1.10
2023-05-02T10:23:09.923Z,1.60
2023-05-02T10:25:43.349Z,1.10
2023-05-02T10:28:13.782Z,1.80
2023-05-02T10:30:44.716Z,1.60
2023-05-02T10:33:19.244Z,2.13
2023-05-02T10:35:50.605Z,1.50
2023-05-02T10:38:24.967Z,1.65
2023-05-02T10:43:34.038Z,1.30
2023-05-02T10:46:05.229Z,1.20
2023-05-02T10:48:35.525Z,1.13
2023-05-02T10:51:06.046Z,1.38
2023-05-02T10:53:37.807Z,1.17
2023-05-02T10:56:29.399Z,1.63
2023-05-02T10:59:32.283Z,1.70
2023-05-02T11:02:03.578Z,2.50
2023-05-02T11:05:04.628Z,1.85
2023-05-02T11:07:39.841Z,1.95
2023-05-02T11:10:28.271Z,2.23
2023-05-02T11:13:02.052Z,1.20
2023-05-02T11:16:00.089Z,2.50
2023-05-02T11:18:30.092Z,2.30
2023-05-02T11:21:33.061Z,2.10
2023-05-02T11:24:33.208Z,1.77
2023-05-02T11:27:36.009Z,1.52
2023-05-02T11:30:39.208Z,1.30
2023-05-02T11:33:18.026Z,1.92
2023-05-02T11:35:51.837Z,2.38
2023-05-02T11:38:24.752Z,2.78
2023-05-02T11:40:57.087Z,1.83
2023-05-02T11:43:31.495Z,1.65
2023-05-02T11:46:06.251Z,2.60
2023-05-02T11:48:36.434Z,2.78
2023-05-02T11:51:07.731Z,2.30
2023-05-02T11:53:43.717Z,2.00
2023-05-02T11:56:13.837Z,2.53
2023-05-02T11:58:44.522Z,3.45
2023-05-02T12:01:18.453Z,2.20
2023-05-02T12:03:49.706Z,1.33
2023-05-02T12:06:21.652Z,1.60
2023-05-02T12:08:55.798Z,1.00
2023-05-02T12:11:27.078Z,2.10
2023-05-02T12:13:57.848Z,2.80
2023-05-02T12:16:31.109Z,2.40
2023-05-02T12:19:01.521Z,1.70
2023-05-02T12:21:33.303Z,1.20
2023-05-02T12:24:04.142Z,2.92
2023-05-02T12:26:34.519Z,2.10
2023-05-02T12:29:08.385Z,1.80
2023-05-02T12:31:41.514Z,2.08
2023-05-02T12:34:11.789Z,2.05
2023-05-02T12:36:47.770Z,2.70
2023-05-02T12:39:17.883Z,1.45
2023-05-02T12:41:48.069Z,2.55
2023-05-02T12:44:18.940Z,1.55
2023-05-02T12:47:03.515Z,2.20
2023-05-02T12:52:04.213Z,1.90
2023-05-02T12:54:34.405Z,2.00
2023-05-02T12:57:08.406Z,1.60
2023-05-02T12:59:41.372Z,1.42
2023-05-02T13:02:15.091Z,2.00
2023-05-02T13:04:45.165Z,1.50
2023-05-02T13:07:15.231Z,0.80
2023-05-02T13:09:45.275Z,1.40
2023-05-02T13:12:15.511Z,1.10
2023-05-02T13:14:45.623Z,1.52
2023-05-02T13:17:18.660Z,1.45
2023-05-02T13:20:00.326Z,0.82
2023-05-02T13:22:32.092Z,1.27
2023-05-02T13:25:02.400Z,1.60
2023-05-02T13:27:34.311Z,1.85
2023-05-02T13:30:10.426Z,1.20
2023-05-02T13:32:43.620Z,1.08
2023-05-02T13:35:16.196Z,1.42
2023-05-02T13:37:46.595Z,0.95
2023-05-02T13:40:20.075Z,1.45
2023-05-02T13:42:50.227Z,1.42
2023-05-02T13:45:20.810Z,0.90
2023-05-02T13:47:54.231Z,1.38
2023-05-02T13:50:24.382Z,0.65
2023-05-02T13:52:54.504Z,0.88
2023-05-02T13:55:27.110Z,1.30
2023-05-02T13:57:58.618Z,1.00
2023-05-02T14:00:29.439Z,1.20
2023-05-02T14:03:02.164Z,1.30
2023-05-02T14:05:32.205Z,1.08
2023-05-02T14:08:02.144Z,0.80
2023-05-02T14:10:32.255Z,1.27
2023-05-02T14:13:02.279Z,0.80
2023-05-02T14:15:32.491Z,1.05
2023-05-02T14:18:05.178Z,1.00
2023-05-02T14:20:35.836Z,1.23
2023-05-02T14:23:07.568Z,1.60
2023-05-02T14:25:39.438Z,1.50
2023-05-02T14:28:11.233Z,1.00
2023-05-02T14:30:45.169Z,1.20
2023-05-02T14:33:25.222Z,1.25
2023-05-02T14:35:56.241Z,0.93
2023-05-02T14:38:27.072Z,1.00
2023-05-02T14:40:58.663Z,0.95
2023-05-02T14:43:30.678Z,1.08
2023-05-02T14:46:04.701Z,1.00
2023-05-02T14:48:38.581Z,0.82
2023-05-02T14:51:15.446Z,1.10
2023-05-02T14:53:45.820Z,1.38
2023-05-02T14:56:18.404Z,1.10
2023-05-02T14:58:48.544Z,1.27
2023-05-02T15:01:19.945Z,1.15
2023-05-02T15:04:06.075Z,2.10
2023-05-02T15:06:38.469Z,1.05
2023-05-02T15:09:09.143Z,1.67
2023-05-02T15:11:39.171Z,1.27
2023-05-02T15:14:09.508Z,1.80
2023-05-02T15:16:39.934Z,1.83
2023-05-02T15:19:12.794Z,0.98
2023-05-02T15:21:42.850Z,1.00
2023-05-02T15:24:13.211Z,1.00
2023-05-02T15:26:43.561Z,1.83
2023-05-02T15:29:13.766Z,1.13
2023-05-02T15:31:43.849Z,1.20
2023-05-02T15:34:16.740Z,1.30
2023-05-02T15:36:46.799Z,1.67
2023-05-02T15:39:18.190Z,1.10
2023-05-02T15:41:48.312Z,1.00
2023-05-02T15:44:18.522Z,1.42
2023-05-02T15:46:49.652Z,1.15
2023-05-02T15:49:24.653Z,0.90
2023-05-02T15:51:54.901Z,0.77
2023-05-02T15:54:25.029Z,0.73
2023-05-02T15:56:55.278Z,1.02
2023-05-02T15:59:28.428Z,1.13
2023-05-02T16:01:59.456Z,1.02
2023-05-02T16:04:35.941Z,1.00
2023-05-02T16:07:06.013Z,0.80
2023-05-02T16:09:36.222Z,0.98
2023-05-02T16:12:07.462Z,0.63
2023-05-02T16:14:38.422Z,0.73
2023-05-02T16:17:08.460Z,0.45
2023-05-02T16:19:41.147Z,0.30
2023-05-02T16:22:11.641Z,1.20
2023-05-02T16:24:41.830Z,0.70
2023-05-02T16:27:13.555Z,0.93
2023-05-02T16:29:43.704Z,0.80
2023-05-02T16:32:13.753Z,1.02
2023-05-02T16:34:46.336Z,1.25
2023-05-02T16:37:16.539Z,0.85
2023-05-02T16:39:52.709Z,1.00
2023-05-02T16:42:22.686Z,0.93
2023-05-02T16:44:52.843Z,0.75
2023-05-02T16:47:22.926Z,0.70
2023-05-02T16:49:58.724Z,0.70
2023-05-02T16:52:29.815Z,1.10
2023-05-02T16:55:00.034Z,0.63
2023-05-02T16:57:30.146Z,0.77
2023-05-02T17:00:03.460Z,0.80
2023-05-02T17:02:34.386Z,0.80
2023-05-02T17:05:07.720Z,0.52
2023-05-02T17:07:37.997Z,0.80
2023-05-02T17:10:09.781Z,0.90
2023-05-02T17:12:39.788Z,0.80
2023-05-02T17:15:13.790Z,0.68
2023-05-02T17:17:45.747Z,0.80
2023-05-02T17:20:20.678Z,0.93
2023-05-02T17:22:51.432Z,0.93
2023-05-02T17:25:22.943Z,1.13
2023-05-02T17:27:52.995Z,0.90
2023-05-02T17:30:25.314Z,0.30
2023-05-02T17:32:55.675Z,0.70
2023-05-02T17:35:30.164Z,0.70
2023-05-02T17:38:00.505Z,0.70
2023-05-02T17:40:32.578Z,0.68
2023-05-02T17:43:02.835Z,1.10
2023-05-02T17:45:36.613Z,0.70
2023-05-02T17:48:06.859Z,0.70
2023-05-02T17:50:42.207Z,0.38
2023-05-02T17:53:13.299Z,0.40
2023-05-02T17:55:43.565Z,0.90
2023-05-02T17:58:13.861Z,0.80
2023-05-02T18:00:43.923Z,0.50
2023-05-02T18:03:14.447Z,0.60
2023-05-02T18:05:47.949Z,0.70
2023-05-02T18:08:17.950Z,0.70
2023-05-02T18:10:48.195Z,0.82
2023-05-02T18:13:18.205Z,0.70
2023-05-02T18:15:49.449Z,0.93
2023-05-02T18:18:19.509Z,0.70
2023-05-02T18:20:52.308Z,1.02
2023-05-02T18:23:24.716Z,0.65
2023-05-02T18:26:00.759Z,0.80
2023-05-02T18:28:30.911Z,1.17
2023-05-02T18:31:01.563Z,0.85
2023-05-02T18:33:31.954Z,0.60
2023-05-02T18:36:06.308Z,0.55
2023-05-02T18:38:37.700Z,0.68
2023-05-02T18:41:09.555Z,0.77
2023-05-02T18:43:39.702Z,0.60
2023-05-02T18:46:12.286Z,0.43
2023-05-02T18:48:42.676Z,0.60
2023-05-02T18:51:16.346Z,0.40
2023-05-02T18:53:46.416Z,0.70
2023-05-02T18:56:17.193Z,0.70
2023-05-02T18:58:47.183Z,0.80
2023-05-02T19:01:20.358Z,0.85
2023-05-02T19:03:50.690Z,0.93
2023-05-02T19:06:23.596Z,0.63
2023-05-02T19:08:53.866Z,0.63
2023-05-02T19:11:23.963Z,0.93
2023-05-02T19:13:56.893Z,0.75
2023-05-02T19:16:27.861Z,0.82
2023-05-02T19:19:00.256Z,0.77
2023-05-02T19:21:34.198Z,1.10
2023-05-02T19:24:06.597Z,0.70
2023-05-02T19:26:36.614Z,0.70
2023-05-02T19:29:06.736Z,0.70
2023-05-02T19:31:38.982Z,0.70
2023-05-02T19:34:09.198Z,0.90
2023-05-02T19:36:42.124Z,0.55
2023-05-02T19:39:13.374Z,0.80
2023-05-02T19:41:43.352Z,1.02
2023-05-02T19:44:16.108Z,0.75
2023-05-02T19:46:46.416Z,1.00
2023-05-02T19:49:16.897Z,0.75
2023-05-02T19:51:49.736Z,0.90
2023-05-02T19:54:19.774Z,0.65
2023-05-02T19:56:50.622Z,0.50
2023-05-02T19:59:21.054Z,0.88
2023-05-02T20:01:51.229Z,0.80
2023-05-02T20:04:21.446Z,0.77
2023-05-02T20:06:54.496Z,0.60
2023-05-02T20:09:25.877Z,0.50
2023-05-02T20:11:59.587Z,0.60
2023-05-02T20:14:29.812Z,0.98
2023-05-02T20:17:01.755Z,0.82
2023-05-02T20:19:32.936Z,0.85
2023-05-02T20:22:05.660Z,0.80
2023-05-02T20:24:35.648Z,0.50
2023-05-02T20:27:05.976Z,0.65
2023-05-02T20:29:36.126Z,0.70
2023-05-02T20:32:06.362Z,0.82
2023-05-02T20:34:37.045Z,1.38
2023-05-02T20:37:11.089Z,1.05
2023-05-02T20:39:41.060Z,0.60
2023-05-02T20:42:11.704Z,0.82
2023-05-02T20:44:42.226Z,0.80
2023-05-02T20:47:12.599Z,0.77
2023-05-02T20:49:42.552Z,0.80
2023-05-02T20:52:15.461Z,1.02
2023-05-02T20:54:46.510Z,0.85
2023-05-02T20:57:18.017Z,1.10
2023-05-02T20:59:53.800Z,0.85
2023-05-02T21:02:26.977Z,0.95
2023-05-02T21:04:57.763Z,0.63
2023-05-02T21:07:30.429Z,0.80
2023-05-02T21:10:01.190Z,1.15
2023-05-02T21:12:31.541Z,0.60
2023-05-02T21:15:01.690Z,0.98
2023-05-02T21:17:31.926Z,0.95
2023-05-02T21:20:05.139Z,0.45
2023-05-02T21:22:38.073Z,0.87
2023-05-02T21:25:08.933Z,0.40
2023-05-02T21:27:39.043Z,0.50
2023-05-02T21:30:10.829Z,0.40
2023-05-02T21:32:41.035Z,0.90
2023-05-02T21:35:11.624Z,0.90
2023-05-02T21:37:44.673Z,0.52
2023-05-02T21:40:16.986Z,0.93
2023-05-02T21:42:47.053Z,0.63
2023-05-02T21:45:17.350Z,0.77
2023-05-02T21:47:47.374Z,0.40
2023-05-02T21:50:17.439Z,0.65
2023-05-02T21:52:51.473Z,0.50
2023-05-02T21:55:21.644Z,0.63
2023-05-02T21:57:51.714Z,0.77
2023-05-02T22:00:21.872Z,0.50
2023-05-02T22:02:52.077Z,0.57
2023-05-02T22:05:22.334Z,0.50
2023-05-02T22:07:55.769Z,0.63
2023-05-02T22:10:26.048Z,0.43
2023-05-02T22:12:56.362Z,0.35
2023-05-02T22:15:26.324Z,0.47
2023-05-02T22:17:57.428Z,0.60
2023-05-02T22:20:28.424Z,0.60
2023-05-02T22:23:01.223Z,0.50
2023-05-02T22:25:31.227Z,0.40
2023-05-02T22:28:07.219Z,0.57
2023-05-02T22:30:37.222Z,0.55
2023-05-02T22:33:07.627Z,0.55
2023-05-02T22:35:38.909Z,0.55
2023-05-02T22:38:11.876Z,0.60
2023-05-02T22:40:42.043Z,0.43
2023-05-02T22:43:12.048Z,0.60
2023-05-02T22:45:42.184Z,0.50
2023-05-02T22:48:12.259Z,0.45
2023-05-02T22:50:43.284Z,0.60
2023-05-02T22:53:16.072Z,0.60
2023-05-02T22:55:46.092Z,0.80
2023-05-02T22:58:17.293Z,0.90
2023-05-02T23:00:47.440Z,0.50
2023-05-02T23:03:17.645Z,0.55
2023-05-02T23:05:47.862Z,0.47
2023-05-02T23:08:21.089Z,1.10
2023-05-02T23:10:51.375Z,0.40
2023-05-02T23:13:21.459Z,0.50
2023-05-02T23:15:56.162Z,0.38
2023-05-02T23:18:38.676Z,0.38
2023-05-02T23:21:17.142Z,0.40
2023-05-02T23:23:50.250Z,0.52
2023-05-02T23:26:22.438Z,0.40
2023-05-02T23:28:52.770Z,0.47
2023-05-02T23:31:22.880Z,0.60
2023-05-02T23:33:53.261Z,0.90
2023-05-02T23:36:23.404Z,0.63
2023-05-02T23:38:56.238Z,0.68
2023-05-02T23:41:26.652Z,0.50
2023-05-02T23:43:57.236Z,0.35
2023-05-02T23:46:27.929Z,0.70
2023-05-02T23:48:57.967Z,0.50
2023-05-02T23:51:32.269Z,0.50
2023-05-02T23:54:16.200Z,0.60
2023-05-02T23:56:46.651Z,0.50
2023-05-02T23:59:18.463Z,0.75
